Time;durP1;ratioP1;P1;durP2;ratioP2;P2;SDS_P1;SDS_P2;PMS_P1;PMS_P2;Temp;Humidity;BMP_temperature;BMP_pressure;BME280_temperature;BME280_humidity;BME280_pressure;Samples;Min_cycle;Max_cycle;Signal;HPM_P1;HPM_P2
2021/03/26 00:01:49;;;;;;;12.23;9.77;;;;;;;9.44;78.71;100892.13;5050473;28;20175;-72
2021/03/26 00:04:14;;;;;;;8.40;6.70;;;;;;;9.47;78.75;100879.81;5050212;28;20258;-72
2021/03/26 00:06:43;;;;;;;10.77;8.17;;;;;;;9.41;78.94;100890.00;5049578;28;20254;-72
2021/03/26 00:09:15;;;;;;;8.53;6.60;;;;;;;9.41;79.11;100892.72;5050393;28;20183;-73
2021/03/26 00:11:41;;;;;;;9.30;8.40;;;;;;;9.38;78.88;100890.56;5050331;28;20179;-72
2021/03/26 00:14:06;;;;;;;8.53;7.63;;;;;;;9.34;79.45;100886.78;5050216;28;20199;-72
2021/03/26 00:16:31;;;;;;;8.30;7.50;;;;;;;9.34;79.27;100889.53;5049435;28;20178;-73
2021/03/26 00:18:57;;;;;;;12.87;10.47;;;;;;;9.31;79.00;100884.66;5049998;28;20206;-72
2021/03/26 00:21:23;;;;;;;11.40;9.37;;;;;;;9.31;78.62;100890.09;5050310;28;20179;-73
2021/03/26 00:23:49;;;;;;;10.40;9.10;;;;;;;9.28;79.05;100893.44;5050019;28;20254;-72
2021/03/26 00:26:16;;;;;;;8.90;7.97;;;;;;;9.25;78.92;100891.25;5049521;28;20178;-73
2021/03/26 00:28:41;;;;;;;14.33;9.43;;;;;;;9.24;79.20;100890.44;5049998;28;20194;-73
2021/03/26 00:31:07;;;;;;;9.93;8.40;;;;;;;9.21;79.33;100884.78;5050178;28;20236;-72
2021/03/26 00:33:32;;;;;;;10.10;9.20;;;;;;;9.21;79.23;100891.03;5049971;28;20525;-72
2021/03/26 00:35:58;;;;;;;9.47;8.67;;;;;;;9.19;78.96;100887.78;5050017;28;20661;-73
2021/03/26 00:38:24;;;;;;;10.73;9.10;;;;;;;9.19;79.08;100892.44;5052189;28;20206;-73
2021/03/26 00:40:50;;;;;;;16.70;10.53;;;;;;;9.13;79.63;100885.44;5054530;28;20553;-73
2021/03/26 00:43:16;;;;;;;11.53;9.00;;;;;;;9.12;79.65;100879.16;5053944;28;20181;-72
2021/03/26 00:45:42;;;;;;;13.10;8.33;;;;;;;9.14;79.33;100873.44;5036511;28;20603;-73
2021/03/26 00:48:09;;;;;;;11.07;9.23;;;;;;;9.15;79.58;100880.50;5053678;28;20225;-72
2021/03/26 00:50:39;;;;;;;9.83;8.70;;;;;;;9.14;79.66;100878.88;5054396;28;20253;-72
2021/03/26 00:53:14;;;;;;;8.07;7.27;;;;;;;9.06;79.97;100879.50;5054092;28;20179;-73
2021/03/26 00:55:40;;;;;;;9.57;8.77;;;;;;;8.98;80.14;100886.41;5054041;28;20178;-73
2021/03/26 00:58:06;;;;;;;9.07;7.80;;;;;;;8.91;80.38;100896.84;5053590;28;20199;-73
2021/03/26 01:00:32;;;;;;;10.80;9.30;;;;;;;8.94;80.11;100879.91;5053720;28;20692;-73
2021/03/26 01:02:57;;;;;;;9.97;8.50;;;;;;;8.89;80.32;100880.78;5060446;28;20398;-73
2021/03/26 01:05:30;;;;;;;8.97;8.17;;;;;;;8.86;80.72;100877.84;5073266;28;20182;-72
2021/03/26 01:07:56;;;;;;;9.23;7.30;;;;;;;8.84;80.21;100871.84;5058750;28;20184;-73
2021/03/26 01:10:29;;;;;;;8.43;7.63;;;;;;;8.84;80.72;100867.22;5053353;28;20274;-73
2021/03/26 01:12:55;;;;;;;9.57;8.67;;;;;;;8.83;80.40;100867.50;5053304;28;20211;-73
2021/03/26 01:15:23;;;;;;;8.43;7.63;;;;;;;8.75;80.64;100870.84;5053131;28;20202;-73
2021/03/26 01:17:50;;;;;;;8.77;7.47;;;;;;;8.62;81.56;100880.50;5065414;28;20245;-73
2021/03/26 01:20:20;;;;;;;9.10;8.30;;;;;;;8.51;81.78;100876.25;5055067;28;20206;-73
2021/03/26 01:22:45;;;;;;;8.63;7.67;;;;;;;8.44;82.61;100871.16;5073170;28;20175;-73
2021/03/26 01:25:23;;;;;;;8.57;7.77;;;;;;;8.44;82.27;100875.78;5073020;28;20181;-73
2021/03/26 01:27:49;;;;;;;14.37;9.17;;;;;;;8.38;82.54;100871.47;5072251;28;20660;-72
2021/03/26 01:30:18;;;;;;;9.87;8.93;;;;;;;8.38;82.96;100868.75;5072646;28;20277;-72
2021/03/26 01:32:43;;;;;;;13.23;9.40;;;;;;;8.32;82.72;100868.78;5054951;28;20170;-73
2021/03/26 01:35:11;;;;;;;10.60;9.13;;;;;;;8.28;83.13;100865.00;5054741;28;20184;-72
2021/03/26 01:37:37;;;;;;;11.63;8.47;;;;;;;8.18;83.11;100867.81;5072268;28;20202;-72
2021/03/26 01:40:07;;;;;;;8.93;8.03;;;;;;;8.09;84.22;100861.34;5072829;28;20177;-73
2021/03/26 01:42:34;;;;;;;9.63;7.13;;;;;;;8.13;84.30;100856.97;5072494;28;20174;-72
2021/03/26 01:45:00;;;;;;;8.83;7.97;;;;;;;8.37;83.51;100856.25;5072673;28;20209;-72
2021/03/26 01:47:27;;;;;;;13.43;8.90;;;;;;;8.45;83.00;100852.91;5071989;28;20183;-73
2021/03/26 01:49:53;;;;;;;11.67;9.23;;;;;;;8.51;82.71;100857.19;5072303;28;20202;-73
2021/03/26 01:52:19;;;;;;;8.33;7.53;;;;;;;8.53;82.86;100855.00;5072306;28;20253;-73
2021/03/26 01:54:45;;;;;;;11.13;8.80;;;;;;;8.55;82.47;100850.09;5072467;28;20619;-72
2021/03/26 01:57:11;;;;;;;7.37;6.30;;;;;;;8.57;82.65;100848.72;5071544;28;20199;-73
2021/03/26 01:59:37;;;;;;;9.17;8.20;;;;;;;8.64;82.60;100845.63;5054481;28;20178;-73
2021/03/26 02:02:13;;;;;;;10.10;9.10;;;;;;;8.70;81.57;100840.97;5054268;28;20547;-72
2021/03/26 02:04:42;;;;;;;9.30;7.63;;;;;;;8.69;81.78;100842.88;5072380;28;20202;-73
2021/03/26 02:07:08;;;;;;;8.57;7.77;;;;;;;8.72;81.75;100850.47;5070966;28;20202;-73
2021/03/26 02:09:39;;;;;;;8.87;7.97;;;;;;;8.69;81.88;100848.31;5072019;28;20740;-73
2021/03/26 02:12:13;;;;;;;8.37;7.50;;;;;;;8.71;81.78;100848.03;5072058;28;20179;-73
2021/03/26 02:14:47;;;;;;;10.77;9.00;;;;;;;8.74;81.85;100842.81;5072221;28;20536;-73
2021/03/26 02:17:18;;;;;;;7.87;7.23;;;;;;;8.76;81.07;100840.59;5071730;28;20194;-73
2021/03/26 02:19:55;;;;;;;10.70;9.13;;;;;;;8.79;81.33;100840.00;5054212;28;20175;-73
2021/03/26 02:22:23;;;;;;;9.23;8.27;;;;;;;8.80;81.01;100847.09;5071795;28;20581;-73
2021/03/26 02:24:50;;;;;;;8.10;7.30;;;;;;;8.78;81.54;100838.41;5071908;28;20677;-73
2021/03/26 02:27:18;;;;;;;9.23;8.43;;;;;;;8.73;81.79;100843.91;5071272;28;20186;-73
2021/03/26 02:29:44;;;;;;;9.83;8.93;;;;;;;8.71;81.61;100837.94;5071757;28;20210;-73
2021/03/26 02:32:22;;;;;;;14.67;8.20;;;;;;;8.63;81.61;100833.13;5071629;28;20210;-73
2021/03/26 02:35:09;;;;;;;17.63;12.40;;;;;;;8.64;82.01;100842.91;5071708;28;20282;-73
2021/03/26 02:37:36;;;;;;;11.23;10.13;;;;;;;8.60;81.83;100847.31;5070966;28;20666;-73
2021/03/26 02:40:06;;;;;;;12.37;9.33;;;;;;;8.53;82.15;100841.38;5071574;28;20198;-73
2021/03/26 02:42:33;;;;;;;12.13;8.93;;;;;;;8.52;82.84;100839.75;5071364;28;20561;-72
2021/03/26 02:45:17;;;;;;;13.40;10.37;;;;;;;8.45;82.79;100844.75;5071406;28;20623;-72
2021/03/26 02:47:51;;;;;;;11.67;9.30;;;;;;;8.43;82.74;100852.38;5071245;28;20181;-72
2021/03/26 02:50:24;;;;;;;11.87;10.67;;;;;;;8.35;83.64;100849.19;5071331;28;20175;-72
2021/03/26 02:52:58;;;;;;;12.03;8.50;;;;;;;8.32;83.78;100851.63;5071404;28;20171;-72
2021/03/26 02:56:04;;;;;;;10.47;9.47;;;;;;;8.56;82.40;100851.72;5071170;28;20226;-73
2021/03/26 02:58:33;;;;;;;10.37;8.47;;;;;;;8.64;81.62;100846.44;5071083;28;20279;-73
2021/03/26 03:01:24;;;;;;;8.83;8.00;;;;;;;8.58;82.26;100844.88;5070532;28;20257;-73
2021/03/26 03:03:55;;;;;;;9.17;8.23;;;;;;;8.61;81.35;100838.84;5070847;28;20245;-73
2021/03/26 03:06:29;;;;;;;9.33;8.37;;;;;;;8.57;82.00;100837.00;5070582;28;20202;-73
2021/03/26 03:08:57;;;;;;;11.50;10.07;;;;;;;8.49;82.30;100840.34;5069845;28;20252;-73
2021/03/26 03:11:58;;;;;;;8.40;7.50;;;;;;;8.48;82.07;100850.41;5071115;28;20170;-73
2021/03/26 03:14:52;;;;;;;8.80;8.00;;;;;;;8.40;82.57;100845.63;5026924;28;20194;-73
2021/03/26 03:17:29;;;;;;;8.30;7.47;;;;;;;8.32;82.51;100841.56;5041962;28;20234;-73
2021/03/26 03:20:28;;;;;;;7.67;6.87;;;;;;;8.23;83.58;100843.25;5050863;28;20175;-73
2021/03/26 03:23:12;;;;;;;8.30;7.47;;;;;;;8.27;83.70;100840.81;5051056;28;20178;-73
2021/03/26 03:25:38;;;;;;;8.43;7.47;;;;;;;8.23;83.87;100831.56;5050696;28;20179;-73
2021/03/26 03:28:32;;;;;;;7.63;6.93;;;;;;;8.22;83.92;100840.81;5050317;28;20175;-73
2021/03/26 03:31:25;;;;;;;8.77;7.87;;;;;;;8.15;84.23;100840.38;5050760;28;20184;-73
2021/03/26 03:34:20;;;;;;;9.23;6.87;;;;;;;8.04;84.74;100842.34;5050771;28;20185;-72
2021/03/26 03:36:51;;;;;;;9.70;8.70;;;;;;;8.00;84.65;100838.56;5047255;28;20187;-73
2021/03/26 03:39:23;;;;;;;10.33;8.23;;;;;;;7.98;85.20;100847.03;5050809;28;20675;-73
2021/03/26 03:41:51;;;;;;;8.97;8.03;;;;;;;7.97;85.12;100842.69;5050726;28;20178;-73
2021/03/26 03:44:33;;;;;;;11.33;7.73;;;;;;;7.98;84.64;100844.31;5050273;28;20616;-73
2021/03/26 03:47:19;;;;;;;9.23;8.33;;;;;;;8.02;84.46;100837.19;5048740;28;20532;-73
2021/03/26 03:49:51;;;;;;;9.93;7.57;;;;;;;8.02;83.77;100834.47;5049865;28;20187;-73
2021/03/26 03:52:24;;;;;;;10.17;7.57;;;;;;;8.05;83.75;100830.38;5048861;28;20186;-73
2021/03/26 03:55:17;;;;;;;9.73;8.47;;;;;;;8.10;83.83;100826.78;5050394;28;20175;-73
2021/03/26 03:57:44;;;;;;;10.50;8.07;;;;;;;8.06;84.02;100830.06;5047052;28;20251;-73
2021/03/26 04:00:17;;;;;;;9.43;8.37;;;;;;;8.05;83.79;100827.63;5050068;28;20171;-73
2021/03/26 04:03:11;;;;;;;8.67;7.57;;;;;;;8.04;83.67;100826.03;5050415;28;20199;-73
2021/03/26 04:05:40;;;;;;;8.17;7.37;;;;;;;7.97;83.76;100828.28;5050199;28;20174;-73
2021/03/26 04:08:46;;;;;;;9.67;8.77;;;;;;;8.00;84.37;100827.69;5047818;28;20182;-73
2021/03/26 04:11:53;;;;;;;9.27;8.23;;;;;;;7.89;84.05;100837.03;5050064;28;20171;-73
2021/03/26 04:14:43;;;;;;;9.07;7.47;;;;;;;7.88;84.81;100836.22;5027256;28;20175;-72
2021/03/26 04:17:39;;;;;;;11.17;8.53;;;;;;;7.83;84.28;100835.47;5049262;28;20191;-73
2021/03/26 04:20:15;;;;;;;9.20;8.13;;;;;;;7.73;84.36;100833.59;5050016;28;20720;-73
2021/03/26 04:22:46;;;;;;;10.53;8.37;;;;;;;7.62;84.92;100821.97;5049896;28;20256;-72
2021/03/26 04:25:17;;;;;;;10.10;8.13;;;;;;;7.55;85.23;100823.41;5062574;28;20193;-73
2021/03/26 04:27:47;;;;;;;10.70;9.27;;;;;;;7.51;85.50;100822.31;5068959;28;20297;-72
2021/03/26 04:30:24;;;;;;;9.47;8.60;;;;;;;7.56;85.60;100823.13;5069651;28;20582;-73
2021/03/26 04:32:51;;;;;;;8.47;7.57;;;;;;;7.53;85.95;100815.53;5069798;28;20247;-73
2021/03/26 04:35:18;;;;;;;8.77;7.87;;;;;;;7.53;85.31;100820.16;5069803;28;20166;-73
2021/03/26 04:38:13;;;;;;;8.70;7.77;;;;;;;7.44;85.86;100823.47;5069121;28;20843;-72
2021/03/26 04:40:50;;;;;;;11.57;7.30;;;;;;;7.30;86.16;100824.34;5068538;28;20311;-72
2021/03/26 04:43:27;;;;;;;12.57;8.13;;;;;;;7.38;86.72;100829.22;5070042;28;20178;-72
2021/03/26 04:45:59;;;;;;;14.70;9.67;;;;;;;7.37;86.77;100824.84;5069607;28;20232;-73
2021/03/26 04:48:59;;;;;;;10.10;7.93;;;;;;;7.64;86.69;100824.41;5069152;28;20183;-72
2021/03/26 04:51:47;;;;;;;9.87;8.97;;;;;;;7.85;85.73;100816.94;5051630;28;20235;-73
2021/03/26 04:54:45;;;;;;;10.17;9.17;;;;;;;7.95;85.15;100816.84;5069963;28;20170;-73
2021/03/26 04:57:18;;;;;;;13.13;9.57;;;;;;;8.10;84.60;100814.00;5069151;28;20178;-73
2021/03/26 04:59:53;;;;;;;13.80;9.53;;;;;;;8.20;84.37;100813.91;5069913;28;20167;-73
2021/03/26 05:02:21;;;;;;;10.63;9.63;;;;;;;8.23;84.01;100807.06;5069416;28;20255;-73
2021/03/26 05:04:50;;;;;;;13.67;10.27;;;;;;;8.22;83.76;100808.97;5069648;28;20190;-73
2021/03/26 05:07:20;;;;;;;14.07;8.80;;;;;;;8.30;83.31;100813.00;5068963;28;20194;-73
2021/03/26 05:09:49;;;;;;;10.13;9.03;;;;;;;8.37;83.28;100815.41;5069520;28;20642;-73
2021/03/26 05:12:20;;;;;;;10.33;9.27;;;;;;;8.38;83.62;100815.13;5069401;28;20179;-73
2021/03/26 05:14:54;;;;;;;8.93;8.03;;;;;;;8.39;83.16;100802.31;5051330;28;20178;-73
2021/03/26 05:17:28;;;;;;;10.83;9.63;;;;;;;8.41;83.29;100806.41;5068735;28;20240;-73
2021/03/26 05:19:58;;;;;;;15.93;10.80;;;;;;;8.40;82.74;100809.41;5069410;28;20178;-74
2021/03/26 05:23:07;;;;;;;9.13;8.33;;;;;;;8.35;82.47;100802.09;5069308;28;20175;-73
2021/03/26 05:25:36;;;;;;;14.33;8.97;;;;;;;8.30;83.05;100802.94;4971478;28;20236;-73
2021/03/26 05:28:04;;;;;;;11.23;10.13;;;;;;;8.29;83.59;100804.03;4971023;28;20674;-73
2021/03/26 05:30:38;;;;;;;11.57;9.70;;;;;;;8.31;83.32;100806.47;5025575;28;20206;-73
2021/03/26 05:33:13;;;;;;;10.83;9.80;;;;;;;8.33;83.19;100796.91;5072892;28;20259;-73
2021/03/26 05:35:49;;;;;;;10.00;8.97;;;;;;;8.33;83.52;100798.81;5072779;28;20174;-73
2021/03/26 05:38:25;;;;;;;10.53;9.47;;;;;;;8.34;83.20;100806.72;5071844;28;20248;-73
2021/03/26 05:41:33;;;;;;;16.20;9.03;;;;;;;8.33;83.18;100799.63;5072747;28;20174;-73
2021/03/26 05:44:13;;;;;;;10.67;9.23;;;;;;;8.39;83.67;100810.47;5071815;28;20741;-73
2021/03/26 05:47:08;;;;;;;12.37;10.97;;;;;;;8.43;83.05;100803.38;5072069;28;20544;-73
2021/03/26 05:49:58;;;;;;;9.03;8.13;;;;;;;8.44;83.00;100805.81;5072718;28;20174;-73
2021/03/26 05:52:38;;;;;;;14.30;10.47;;;;;;;8.46;83.28;100808.25;5072210;28;20179;-73
2021/03/26 05:55:43;;;;;;;16.40;10.90;;;;;;;8.43;83.20;100804.19;5072511;28;20618;-73
2021/03/26 05:58:20;;;;;;;13.73;12.10;;;;;;;8.43;82.77;100806.91;5071755;28;20276;-73
2021/03/26 06:01:22;;;;;;;11.80;10.60;;;;;;;8.44;83.30;100805.00;5072246;28;20688;-73
2021/03/26 06:04:06;;;;;;;11.80;9.47;;;;;;;8.45;82.85;100809.34;5072274;28;20235;-73
2021/03/26 06:07:01;;;;;;;10.57;9.50;;;;;;;8.41;82.58;100806.41;5071675;28;20185;-73
2021/03/26 06:09:51;;;;;;;16.83;9.83;;;;;;;8.38;83.22;100806.13;5072306;28;20181;-73
2021/03/26 06:12:38;;;;;;;11.37;10.00;;;;;;;8.38;82.49;100819.75;5072100;28;20170;-73
2021/03/26 06:15:22;;;;;;;11.60;9.10;;;;;;;8.34;82.82;100812.16;5054157;28;20293;-73
2021/03/26 06:18:44;;;;;;;13.83;9.87;;;;;;;8.33;83.00;100812.41;5071316;28;20206;-73
2021/03/26 06:21:32;;;;;;;13.57;8.97;;;;;;;8.34;83.52;100825.78;4970846;28;20261;-73
2021/03/26 06:24:13;;;;;;;11.40;9.00;;;;;;;8.37;83.22;100821.66;4970763;28;20173;-73
2021/03/26 06:27:09;;;;;;;14.33;10.70;;;;;;;8.40;83.32;100826.56;5055432;28;20194;-73
2021/03/26 06:30:02;;;;;;;10.10;9.17;;;;;;;8.41;83.00;100821.91;5071808;28;20216;-73
2021/03/26 06:33:05;;;;;;;14.43;9.40;;;;;;;8.43;82.67;100825.16;5071708;28;20197;-73
2021/03/26 06:35:55;;;;;;;11.33;10.30;;;;;;;8.41;82.29;100828.19;5070685;28;20205;-73
2021/03/26 06:38:38;;;;;;;12.03;10.00;;;;;;;8.48;82.35;100815.03;5070771;28;20697;-73
2021/03/26 06:41:37;;;;;;;11.43;10.07;;;;;;;8.51;82.39;100811.72;5071732;28;20170;-73
2021/03/26 06:44:40;;;;;;;12.37;9.40;;;;;;;8.57;81.74;100824.19;5051476;28;20202;-73
2021/03/26 06:47:19;;;;;;;11.13;10.13;;;;;;;8.61;82.34;100817.06;5050786;28;20220;-73
2021/03/26 06:49:56;;;;;;;11.73;10.27;;;;;;;8.67;81.72;100808.81;5051461;28;20639;-73
2021/03/26 06:52:40;;;;;;;11.80;10.60;;;;;;;8.78;81.77;100810.34;5051756;28;20259;-72
2021/03/26 06:55:17;;;;;;;10.50;9.27;;;;;;;8.84;81.40;100820.09;5051369;28;20179;-73
2021/03/26 06:58:01;;;;;;;11.47;10.07;;;;;;;8.91;81.70;100812.38;5051327;28;20206;-74
2021/03/26 07:00:41;;;;;;;13.70;9.83;;;;;;;9.00;80.64;100807.91;5051527;28;20201;-73
2021/03/26 07:03:43;;;;;;;10.60;9.47;;;;;;;9.07;80.38;100815.72;5051126;28;20167;-73
2021/03/26 07:06:45;;;;;;;10.73;9.63;;;;;;;9.15;80.01;100804.16;5051134;28;20170;-73
2021/03/26 07:09:40;;;;;;;13.10;9.37;;;;;;;9.21;80.09;100802.97;5051562;28;20178;-74
2021/03/26 07:12:24;;;;;;;10.53;8.80;;;;;;;9.28;80.39;100806.19;5051619;28;20247;-74
2021/03/26 07:15:07;;;;;;;11.27;10.07;;;;;;;9.36;79.94;100808.22;5051293;28;20175;-72
2021/03/26 07:18:10;;;;;;;12.03;10.93;;;;;;;9.44;79.13;100804.84;5050564;28;20194;-73
2021/03/26 07:20:57;;;;;;;9.57;7.43;;;;;;;9.54;79.25;100804.69;5051074;28;20210;-73
2021/03/26 07:23:22;;;;;;;15.00;9.93;;;;;;;9.62;78.99;100808.69;5051315;28;20521;-73
2021/03/26 07:26:12;;;;;;;10.20;8.43;;;;;;;9.69;78.43;100811.00;5050982;28;20163;-73
2021/03/26 07:28:56;;;;;;;14.00;10.53;;;;;;;9.75;77.91;100805.19;5050780;28;20546;-73
2021/03/26 07:31:47;;;;;;;10.10;8.83;;;;;;;9.83;78.06;100800.97;5050765;28;20206;-73
2021/03/26 07:34:59;;;;;;;12.33;8.87;;;;;;;9.86;77.23;100802.31;5050660;28;20206;-73
2021/03/26 07:37:52;;;;;;;11.07;8.77;;;;;;;9.91;77.21;100794.84;5009162;28;20693;-73
2021/03/26 07:40:49;;;;;;;11.33;9.03;;;;;;;9.97;76.51;100801.84;5050503;28;20167;-73
2021/03/26 07:43:31;;;;;;;12.07;9.87;;;;;;;10.07;75.81;100796.22;5050669;28;20174;-73
2021/03/26 07:46:00;;;;;;;11.13;10.07;;;;;;;10.17;75.95;100797.16;5050157;28;20627;-73
2021/03/26 07:48:43;;;;;;;13.07;11.30;;;;;;;10.29;75.55;100798.31;5049800;28;20172;-74
2021/03/26 07:51:17;;;;;;;14.03;10.17;;;;;;;10.31;75.03;100798.84;5050222;28;20186;-73
2021/03/26 07:53:54;;;;;;;11.10;9.97;;;;;;;10.37;74.64;100788.63;5050408;28;20175;-74
2021/03/26 07:56:41;;;;;;;26.90;10.97;;;;;;;10.44;74.45;100791.78;5031980;28;20598;-73
2021/03/26 07:59:40;;;;;;;9.73;8.77;;;;;;;10.42;74.12;100794.00;5050266;28;20211;-73
2021/03/26 08:02:35;;;;;;;11.53;8.67;;;;;;;10.56;74.31;100789.38;5050180;28;20392;-73
2021/03/26 08:05:06;;;;;;;7.77;7.10;;;;;;;10.66;72.80;100782.88;5049991;28;20648;-73
2021/03/26 08:07:57;;;;;;;11.30;9.53;;;;;;;10.69;72.96;100791.25;5049648;28;20178;-73
2021/03/26 08:10:30;;;;;;;9.00;8.23;;;;;;;10.78;72.70;100790.56;5019011;28;20183;-74
2021/03/26 08:13:17;;;;;;;9.10;8.20;;;;;;;10.97;72.32;100791.25;5050083;28;20175;-74
2021/03/26 08:16:01;;;;;;;7.53;6.83;;;;;;;11.10;71.14;100789.63;5032166;28;20178;-73
2021/03/26 08:18:52;;;;;;;11.87;9.47;;;;;;;11.20;71.10;100790.22;5049338;28;20209;-74
2021/03/26 08:21:26;;;;;;;11.27;6.37;;;;;;;11.24;70.69;100791.22;5050100;28;20202;-73
2021/03/26 08:24:26;;;;;;;6.30;5.57;;;;;;;11.37;69.33;100795.03;5050425;28;20566;-73
2021/03/26 08:27:30;;;;;;;5.77;5.27;;;;;;;11.37;68.90;100792.31;5049071;28;20175;-73
2021/03/26 08:30:29;;;;;;;7.57;6.87;;;;;;;11.46;69.22;100789.66;5047316;28;20194;-73
2021/03/26 08:33:16;;;;;;;8.17;6.77;;;;;;;11.49;68.65;100794.50;5049837;28;20267;-73
2021/03/26 08:36:35;;;;;;;9.43;8.53;;;;;;;11.68;69.37;100786.13;5049957;28;20175;-71
2021/03/26 08:39:16;;;;;;;8.20;7.40;;;;;;;11.74;68.34;100793.91;4968364;28;20721;-73
2021/03/26 08:41:45;;;;;;;8.63;7.77;;;;;;;11.84;68.10;100792.88;5040970;28;20195;-74
2021/03/26 08:44:19;;;;;;;7.13;6.27;;;;;;;11.92;66.69;100792.13;5031866;28;20250;-73
2021/03/26 08:46:48;;;;;;;8.10;7.23;;;;;;;11.91;66.47;100793.25;5049185;28;20207;-73
2021/03/26 08:49:22;;;;;;;4.37;3.57;;;;;;;11.97;65.12;100797.47;5049648;28;20175;-73
2021/03/26 08:52:13;;;;;;;8.17;5.33;;;;;;;11.99;65.39;100797.97;5049570;28;20269;-73
2021/03/26 08:55:19;;;;;;;8.20;3.73;;;;;;;11.88;65.46;100799.38;5049646;28;20175;-73
2021/03/26 08:57:48;;;;;;;1.40;1.40;;;;;;;11.99;65.06;100797.16;5048832;28;20209;-73
2021/03/26 09:00:49;;;;;;;7.30;6.47;;;;;;;12.02;63.90;100785.59;5053222;28;20226;-73
2021/03/26 09:03:32;;;;;;;6.43;5.83;;;;;;;12.06;64.49;100787.41;5053506;28;20170;-73
2021/03/26 09:06:16;;;;;;;5.20;3.93;;;;;;;12.12;62.63;100782.59;5053292;28;20187;-73
2021/03/26 09:08:58;;;;;;;5.90;5.33;;;;;;;12.16;62.25;100787.16;5053372;28;20171;-73
2021/03/26 09:11:39;;;;;;;4.50;3.40;;;;;;;12.12;61.77;100782.59;5053681;28;20171;-73
2021/03/26 09:14:29;;;;;;;6.70;5.87;;;;;;;12.27;63.49;100784.13;5053339;28;20230;-73
2021/03/26 09:17:05;;;;;;;5.77;5.13;;;;;;;12.49;63.14;100789.56;5052645;28;20181;-74
2021/03/26 09:19:43;;;;;;;6.83;5.70;;;;;;;12.55;61.49;100779.25;5053372;28;20386;-73
2021/03/26 09:22:26;;;;;;;6.77;6.17;;;;;;;12.61;62.06;100778.81;5053278;28;20657;-72
2021/03/26 09:25:05;;;;;;;5.70;5.20;;;;;;;12.72;62.11;100768.34;5052904;28;20183;-73
2021/03/26 09:27:52;;;;;;;7.07;6.37;;;;;;;12.74;61.98;100777.09;5052263;28;20190;-72
2021/03/26 09:30:31;;;;;;;5.67;5.10;;;;;;;12.86;60.23;100774.53;5053209;28;20536;-72
2021/03/26 09:33:19;;;;;;;6.37;5.77;;;;;;;13.05;60.57;100774.28;5052936;28;20175;-72
2021/03/26 09:35:53;;;;;;;6.33;5.07;;;;;;;13.19;58.04;100777.72;5052325;28;20228;-72
2021/03/26 09:38:33;;;;;;;3.93;3.60;;;;;;;12.84;59.68;100773.25;5052188;28;20213;-71
2021/03/26 09:41:07;;;;;;;2.73;2.53;;;;;;;12.68;60.55;100775.59;5052639;28;20517;-72
2021/03/26 09:44:00;;;;;;;2.30;2.10;;;;;;;12.58;61.56;100770.41;5052585;28;20624;-72
2021/03/26 09:46:41;;;;;;;5.53;5.03;;;;;;;12.43;61.57;100771.63;5051994;28;20199;-72
2021/03/26 09:49:24;;;;;;;6.23;5.70;;;;;;;12.53;63.29;100768.63;5052883;28;20175;-72
2021/03/26 09:52:00;;;;;;;6.73;6.13;;;;;;;13.02;62.16;100763.94;5052452;28;20573;-72
2021/03/26 09:54:40;;;;;;;9.27;4.83;;;;;;;13.27;60.16;100754.94;5052457;28;20206;-72
2021/03/26 09:57:22;;;;;;;12.03;3.40;;;;;;;13.21;60.71;100759.00;5051898;28;20579;-72
2021/03/26 10:00:09;;;;;;;4.40;4.10;;;;;;;13.00;59.74;100758.75;5052377;28;20189;-72
2021/03/26 10:02:50;;;;;;;1.97;1.87;;;;;;;12.89;61.02;100760.19;5034584;28;20562;-73
2021/03/26 10:05:17;;;;;;;4.77;4.13;;;;;;;13.03;61.65;100751.84;5052260;28;20179;-73
2021/03/26 10:08:05;;;;;;;4.87;2.63;;;;;;;13.25;60.45;100742.69;5051775;28;20191;-73
2021/03/26 10:13:02;;;;;;;6.93;6.33;;;;;;;13.57;58.56;100746.88;5051241;28;20171;-73
2021/03/26 10:15:34;;;;;;;4.30;3.37;;;;;;;13.73;58.12;100750.75;5052202;28;20171;-73
2021/03/26 10:18:21;;;;;;;5.47;4.97;;;;;;;13.82;57.56;100742.50;5050282;28;20194;-73
2021/03/26 10:20:50;;;;;;;5.47;4.97;;;;;;;13.78;58.00;100730.56;5051695;28;20693;-74
2021/03/26 10:23:55;;;;;;;7.13;4.77;;;;;;;13.67;59.18;100739.13;5051363;28;20175;-73
2021/03/26 10:26:26;;;;;;;5.70;3.23;;;;;;;13.64;59.37;100731.53;5051343;28;20175;-72
2021/03/26 10:29:02;;;;;;;3.80;3.43;;;;;;;13.50;59.17;100728.16;5033920;28;20187;-72
2021/03/26 10:31:36;;;;;;;5.23;3.83;;;;;;;13.46;58.31;100732.69;5051409;28;20174;-72
2021/03/26 10:34:05;;;;;;;8.70;5.60;;;;;;;13.57;58.63;100722.16;5057839;28;20242;-73
2021/03/26 10:36:36;;;;;;;6.07;4.67;;;;;;;13.66;57.98;100734.78;5066479;28;20214;-73
2021/03/26 10:39:02;;;;;;;2.63;2.43;;;;;;;13.90;57.12;100719.72;5069985;28;20217;-72
2021/03/26 10:41:49;;;;;;;8.60;4.83;;;;;;;13.88;55.39;100708.22;5070300;28;20173;-73
2021/03/26 10:44:36;;;;;;;6.63;6.03;;;;;;;13.92;55.47;100695.47;5071318;28;20174;-74
2021/03/26 10:47:14;;;;;;;6.20;5.10;;;;;;;14.17;54.69;100702.81;5071092;28;20174;-73
2021/03/26 10:49:50;;;;;;;6.10;5.60;;;;;;;13.92;53.78;100704.53;5070820;28;20187;-72
2021/03/26 10:52:22;;;;;;;5.50;5.03;;;;;;;13.59;54.72;100698.75;5071424;28;20265;-73
2021/03/26 10:54:58;;;;;;;4.97;3.60;;;;;;;13.40;55.94;100690.06;5070577;28;20521;-73
2021/03/26 10:57:35;;;;;;;5.73;5.23;;;;;;;13.56;55.81;100684.88;5070857;28;20359;-73
2021/03/26 11:00:40;;;;;;;5.57;4.93;;;;;;;13.84;53.80;100675.13;5067695;28;20631;-73
2021/03/26 11:03:19;;;;;;;5.27;4.57;;;;;;;14.23;54.09;100664.97;5042535;28;20194;-73
2021/03/26 11:05:53;;;;;;;4.10;3.37;;;;;;;14.39;52.15;100666.03;5066122;28;20179;-72
2021/03/26 11:08:34;;;;;;;4.83;4.43;;;;;;;14.62;52.31;100663.03;5069073;28;20187;-73
2021/03/26 11:11:08;;;;;;;4.10;3.77;;;;;;;14.66;51.41;100653.75;5066124;28;20712;-73
2021/03/26 11:13:58;;;;;;;4.97;4.47;;;;;;;14.82;48.48;100654.78;5065406;28;20176;-73
2021/03/26 11:16:31;;;;;;;2.30;2.17;;;;;;;14.48;49.28;100664.06;5050420;28;20171;-73
2021/03/26 11:19:11;;;;;;;2.63;2.30;;;;;;;14.54;48.37;100659.16;5051116;28;20587;-73
2021/03/26 11:21:49;;;;;;;5.93;4.63;;;;;;;14.61;48.76;100642.13;5050406;28;20171;-72
2021/03/26 11:24:15;;;;;;;2.80;2.50;;;;;;;14.67;47.17;100643.56;5051333;28;20746;-73
2021/03/26 11:27:08;;;;;;;2.37;1.33;;;;;;;14.75;46.65;100637.19;5062063;28;20687;-73
2021/03/26 11:29:37;;;;;;;2.03;1.83;;;;;;;14.40;46.61;100625.59;5068919;28;20187;-72
2021/03/26 11:32:12;;;;;;;4.47;2.50;;;;;;;14.38;48.15;100634.16;5051413;28;20627;-73
2021/03/26 11:34:59;;;;;;;1.20;1.20;;;;;;;14.44;48.68;100629.31;5049808;28;20186;-72
2021/03/26 11:37:48;;;;;;;3.77;3.37;;;;;;;14.35;46.97;100620.28;5051651;28;20258;-73
2021/03/26 11:40:29;;;;;;;2.33;2.13;;;;;;;14.50;47.98;100622.50;5069911;28;20316;-72
2021/03/26 11:43:08;;;;;;;3.73;3.43;;;;;;;14.35;48.08;100623.84;5071625;28;20198;-72
2021/03/26 11:45:40;;;;;;;3.33;3.03;;;;;;;14.28;48.44;100621.59;5070927;28;20670;-73
2021/03/26 11:48:11;;;;;;;4.13;3.73;;;;;;;14.45;48.42;100606.97;5050871;28;20261;-72
2021/03/26 11:51:03;;;;;;;3.77;3.40;;;;;;;14.89;48.55;100608.28;5050975;28;20255;-73
2021/03/26 11:53:40;;;;;;;2.20;1.63;;;;;;;14.96;45.12;100609.69;5050218;28;20249;-72
2021/03/26 11:56:23;;;;;;;3.17;2.77;;;;;;;14.94;46.23;100592.72;5051195;28;20199;-73
2021/03/26 11:59:01;;;;;;;1.17;1.07;;;;;;;15.12;45.62;100603.22;5050030;28;20278;-73
2021/03/26 12:01:34;;;;;;;2.17;2.07;;;;;;;14.70;45.49;100598.91;5051762;28;20620;-72
2021/03/26 12:04:07;;;;;;;4.73;3.17;;;;;;;14.76;46.83;100595.63;5051329;28;20187;-72
2021/03/26 12:06:36;;;;;;;7.10;2.87;;;;;;;14.92;48.54;100595.81;5051078;28;20159;-72
2021/03/26 12:09:14;;;;;;;2.23;2.13;;;;;;;15.20;46.48;100598.81;5052159;28;20592;-73
2021/03/26 12:12:08;;;;;;;3.27;2.97;;;;;;;15.36;46.40;100590.72;5051965;28;20185;-72
2021/03/26 12:14:47;;;;;;;2.63;2.43;;;;;;;15.53;46.46;100592.47;5052204;28;20252;-72
2021/03/26 12:17:21;;;;;;;2.00;1.90;;;;;;;15.51;46.07;100587.28;5049744;28;20182;-72
2021/03/26 12:19:47;;;;;;;2.37;2.17;;;;;;;15.19;45.33;100580.69;5057333;28;20186;-72
2021/03/26 12:22:22;;;;;;;3.77;2.73;;;;;;;15.32;45.61;100574.03;5055449;28;20175;-72
2021/03/26 12:24:56;;;;;;;3.63;3.27;;;;;;;15.59;46.72;100572.63;5066308;28;20196;-72